createdAt,value
2019-04-25T00:00:45.197Z,97518.18
2019-04-25T00:03:49.649Z,97518.88
2019-04-25T00:06:54.143Z,97521.02
2019-04-25T00:09:58.590Z,97527.42
2019-04-25T00:13:03.681Z,97520.55
2019-04-25T00:16:08.629Z,97524.98
2019-04-25T00:19:13.449Z,97517.34
2019-04-25T00:22:25.568Z,97517.67
2019-04-25T00:25:34.584Z,97515.55
2019-04-25T00:28:39.343Z,97511.13
2019-04-25T00:31:45.116Z,97504.42
2019-04-25T00:34:51.772Z,97505.72
2019-04-25T00:37:56.575Z,97506.50
2019-04-25T00:41:01.793Z,97508.24
2019-04-25T00:44:06.323Z,97513.69
2019-04-25T00:47:11.754Z,97511.54
2019-04-25T00:50:16.653Z,97508.16
2019-04-25T00:53:21.412Z,97511.10
2019-04-25T00:56:25.852Z,97512.33
2019-04-25T00:59:32.086Z,97516.50
2019-04-25T01:02:38.449Z,97526.47
2019-04-25T01:05:44.314Z,97514.00
2019-04-25T01:08:49.815Z,97524.27
2019-04-25T01:11:55.357Z,97525.20
2019-04-25T01:15:01.557Z,97526.66
2019-04-25T01:18:06.406Z,97534.21
2019-04-25T01:21:10.846Z,97537.09
2019-04-25T01:24:15.947Z,97548.56
2019-04-25T01:27:20.376Z,97533.91
2019-04-25T01:30:26.762Z,97528.30
2019-04-25T01:33:31.193Z,97531.70
2019-04-25T01:36:55.884Z,97529.84
2019-04-25T01:40:01.946Z,97522.92
2019-04-25T01:43:13.875Z,97536.75
2019-04-25T01:46:18.353Z,97538.62
2019-04-25T01:49:23.913Z,97530.23
2019-04-25T01:52:28.410Z,97543.50
2019-04-25T01:55:33.581Z,97537.88
2019-04-25T01:58:38.520Z,97536.91
2019-04-25T02:01:44.042Z,97538.04
2019-04-25T02:04:48.528Z,97541.55
2019-04-25T02:07:54.773Z,97547.63
2019-04-25T02:11:00.821Z,97553.06
2019-04-25T02:14:05.958Z,97552.05
2019-04-25T02:17:10.692Z,97555.92
2019-04-25T02:20:15.181Z,97568.00
2019-04-25T02:23:19.675Z,97570.73
2019-04-25T02:26:24.379Z,97575.35
2019-04-25T02:29:28.809Z,97581.52
2019-04-25T02:32:34.279Z,97581.05
2019-04-25T02:35:42.869Z,97576.09
2019-04-25T02:38:45.560Z,97573.31
2019-04-25T02:41:50.384Z,97572.34
2019-04-25T02:45:04.170Z,97564.33
2019-04-25T02:48:26.321Z,97575.80
2019-04-25T02:51:34.832Z,97575.77
2019-04-25T02:54:39.102Z,97577.86
2019-04-25T02:57:44.919Z,97567.50
2019-04-25T03:00:59.795Z,97565.73
2019-04-25T03:03:57.435Z,97573.70
2019-04-25T03:07:07.045Z,97571.97
2019-04-25T03:10:11.440Z,97577.52
2019-04-25T03:13:15.934Z,97581.72
2019-04-25T03:16:20.714Z,97584.86
2019-04-25T03:19:28.332Z,97586.99
2019-04-25T03:22:34.408Z,97588.25
2019-04-25T03:25:39.273Z,97594.08
2019-04-25T03:28:44.044Z,97591.08
2019-04-25T03:31:48.477Z,97582.66
2019-04-25T03:34:53.122Z,97588.11
2019-04-25T03:38:01.117Z,97596.94
2019-04-25T03:41:06.147Z,97594.55
2019-04-25T03:44:12.526Z,97591.08
2019-04-25T03:47:17.656Z,97593.11
2019-04-25T03:50:23.258Z,97604.02
2019-04-25T03:53:27.798Z,97594.69
2019-04-25T03:56:33.372Z,97599.34
2019-04-25T03:59:37.929Z,97586.66
2019-04-25T04:02:44.295Z,97583.06
2019-04-25T04:05:49.111Z,97587.81
2019-04-25T04:08:53.964Z,97573.61
2019-04-25T04:11:58.342Z,97547.61
2019-04-25T04:15:04.758Z,97523.17
2019-04-25T04:18:16.246Z,97498.02
2019-04-25T04:21:23.084Z,97514.26
2019-04-25T04:24:29.536Z,97516.97
2019-04-25T04:27:35.147Z,97520.03
2019-04-25T04:30:39.683Z,97549.02
2019-04-25T04:33:44.101Z,97578.88
2019-04-25T04:36:48.539Z,97581.31
2019-04-25T04:39:53.626Z,97586.11
2019-04-25T04:42:58.463Z,97590.89
2019-04-25T04:46:03.945Z,97588.50
2019-04-25T04:49:08.783Z,97585.45
2019-04-25T04:52:14.727Z,97582.41
2019-04-25T04:55:19.748Z,97588.42
2019-04-25T04:58:25.127Z,97582.10
2019-04-25T05:01:31.339Z,97582.02
2019-04-25T05:04:53.669Z,97576.75
2019-04-25T05:08:00.071Z,97574.59
2019-04-25T05:11:04.816Z,97567.08
2019-04-25T05:14:09.242Z,97564.39
2019-04-25T05:17:15.168Z,97558.23
2019-04-25T05:20:20.176Z,97558.09
2019-04-25T05:23:24.917Z,97557.27
2019-04-25T05:26:29.459Z,97566.18
2019-04-25T05:29:34.092Z,97567.30
2019-04-25T05:32:38.854Z,97570.92
2019-04-25T05:35:44.145Z,97573.81
2019-04-25T05:38:48.689Z,97576.00
2019-04-25T05:41:54.774Z,97575.16
2019-04-25T05:45:00.019Z,97570.82
2019-04-25T05:48:06.086Z,97575.18
2019-04-25T05:51:10.685Z,97575.75
2019-04-25T05:54:16.509Z,97572.00
2019-04-25T05:57:23.603Z,97573.11
2019-04-25T06:00:28.686Z,97565.33
2019-04-25T06:03:33.934Z,97570.55
2019-04-25T06:06:38.970Z,97565.86
2019-04-25T06:09:44.432Z,97570.19
2019-04-25T06:13:07.190Z,97565.10
2019-04-25T06:16:13.551Z,97562.62
2019-04-25T06:19:20.922Z,97546.33
2019-04-25T06:22:43.966Z,97546.36
2019-04-25T06:25:48.718Z,97549.18
2019-04-25T06:28:58.967Z,97543.50
2019-04-25T06:32:06.626Z,97544.02
2019-04-25T06:35:07.462Z,97542.09
2019-04-25T06:38:13.376Z,97532.77
2019-04-25T06:41:17.860Z,97526.28
2019-04-25T06:44:27.188Z,97526.33
2019-04-25T06:47:44.283Z,97534.73
2019-04-25T06:50:48.782Z,97540.75
2019-04-25T06:53:53.478Z,97540.63
2019-04-25T06:56:58.058Z,97539.41
2019-04-25T07:00:04.417Z,97529.77
2019-04-25T07:03:09.066Z,97527.59
2019-04-25T07:06:14.755Z,97523.78
2019-04-25T07:09:19.370Z,97527.52
2019-04-25T07:12:26.740Z,97525.95
2019-04-25T07:15:30.628Z,97526.58
2019-04-25T07:18:37.076Z,97527.78
2019-04-25T07:21:41.523Z,97524.20
2019-04-25T07:24:45.966Z,97519.52
2019-04-25T07:27:53.444Z,97516.37
2019-04-25T07:31:08.431Z,97504.06
2019-04-25T07:34:14.519Z,97500.67
2019-04-25T07:37:19.019Z,97504.84
2019-04-25T07:40:25.572Z,97502.94
2019-04-25T07:43:30.179Z,97491.78
2019-04-25T07:46:39.247Z,97494.63
2019-04-25T07:49:40.831Z,97489.77
2019-04-25T07:52:45.521Z,97483.33
2019-04-25T07:55:49.962Z,97486.08
2019-04-25T07:58:54.861Z,97479.61
2019-04-25T08:01:59.320Z,97480.53
2019-04-25T08:05:05.669Z,97476.66
2019-04-25T08:08:10.403Z,97477.61
2019-04-25T08:11:14.910Z,97470.37
2019-04-25T08:14:30.525Z,97471.50
2019-04-25T08:17:46.609Z,97469.53
2019-04-25T08:20:51.120Z,97471.84
2019-04-25T08:23:56.231Z,97476.35
2019-04-25T08:27:00.946Z,97474.56
2019-04-25T08:30:06.924Z,97461.95
2019-04-25T08:33:11.432Z,97457.84
2019-04-25T08:36:15.955Z,97455.74
2019-04-25T08:39:20.389Z,97457.88
2019-04-25T08:42:25.195Z,97444.59
2019-04-25T08:45:30.629Z,97440.51
2019-04-25T08:48:49.317Z,97441.78
2019-04-25T08:51:56.318Z,97444.09
2019-04-25T08:55:05.501Z,97447.87
2019-04-25T08:58:15.573Z,97446.48
2019-04-25T09:01:23.535Z,97440.08
2019-04-25T09:04:38.511Z,97436.67
2019-04-25T09:07:44.479Z,97426.52
2019-04-25T09:10:49.126Z,97426.57
2019-04-25T09:13:53.854Z,97422.69
2019-04-25T09:16:58.387Z,97418.09
2019-04-25T09:20:04.011Z,97409.44
2019-04-25T09:23:08.544Z,97413.40
2019-04-25T09:26:14.300Z,97416.87
2019-04-25T09:29:19.941Z,97410.66
2019-04-25T09:32:24.524Z,97403.68
2019-04-25T09:35:29.029Z,97403.33
2019-04-25T09:38:34.775Z,97404.94
2019-04-25T09:41:39.897Z,97398.35
2019-04-25T09:45:03.770Z,97400.45
2019-04-25T09:48:09.991Z,97387.47
2019-04-25T09:51:24.814Z,97390.81
2019-04-25T09:54:30.908Z,97384.20
2019-04-25T09:57:39.716Z,97378.67
2019-04-25T10:00:46.008Z,97374.64
2019-04-25T10:03:50.416Z,97379.73
2019-04-25T10:06:55.339Z,97366.63
2019-04-25T10:09:59.850Z,97369.09
2019-04-25T10:13:06.593Z,97360.02
2019-04-25T10:16:13.321Z,97363.62
2019-04-25T10:19:18.157Z,97364.56
2019-04-25T10:22:23.746Z,97359.30
2019-04-25T10:25:28.642Z,97351.40
2019-04-25T10:28:33.714Z,97358.39
2019-04-25T10:31:38.286Z,97352.19
2019-04-25T10:34:44.854Z,97350.42
2019-04-25T10:37:48.993Z,97342.14
2019-04-25T10:40:53.686Z,97347.16
2019-04-25T10:43:58.251Z,97339.23
2019-04-25T10:47:02.693Z,97333.16
2019-04-25T10:50:08.690Z,97323.70
2019-04-25T10:53:13.469Z,97309.93
2019-04-25T10:56:17.972Z,97297.35
2019-04-25T10:59:23.613Z,97296.38
2019-04-25T11:02:28.911Z,97274.21
2019-04-25T11:05:34.270Z,97274.04
2019-04-25T11:08:39.507Z,97278.01
2019-04-25T11:11:45.814Z,97268.61
2019-04-25T11:14:50.310Z,97271.91
2019-04-25T11:17:55.107Z,97280.54
2019-04-25T11:20:59.829Z,97287.81
2019-04-25T11:24:04.612Z,97279.79
2019-04-25T11:27:09.602Z,97272.95
2019-04-25T11:30:15.270Z,97269.22
2019-04-25T11:33:19.851Z,97274.47
2019-04-25T11:36:25.075Z,97258.77
2019-04-25T11:39:31.505Z,97266.02
2019-04-25T11:42:35.951Z,97257.50
2019-04-25T11:45:41.366Z,97262.53
2019-04-25T11:48:46.394Z,97259.94
2019-04-25T11:51:50.894Z,97257.27
2019-04-25T11:54:55.754Z,97256.48
2019-04-25T11:58:00.382Z,97245.38
2019-04-25T12:01:05.358Z,97233.92
2019-04-25T12:04:09.869Z,97247.70
2019-04-25T12:07:14.472Z,97229.53
2019-04-25T12:10:20.556Z,97230.17
2019-04-25T12:13:25.001Z,97234.45
2019-04-25T12:16:29.508Z,97236.20
2019-04-25T12:19:37.722Z,97224.17
2019-04-25T12:22:40.159Z,97212.84
2019-04-25T12:25:46.236Z,97206.50
2019-04-25T12:28:51.459Z,97218.69
2019-04-25T12:31:56.336Z,97218.66
2019-04-25T12:35:00.927Z,97209.09
2019-04-25T12:38:05.509Z,97217.20
2019-04-25T12:41:09.946Z,97214.14
2019-04-25T12:44:16.029Z,97201.20
2019-04-25T12:47:23.876Z,97199.49
2019-04-25T12:50:28.267Z,97192.82
2019-04-25T12:53:33.373Z,97186.59
2019-04-25T12:56:39.264Z,97175.62
2019-04-25T12:59:47.304Z,97174.95
2019-04-25T13:02:50.283Z,97174.91
2019-04-25T13:05:54.734Z,97174.16
2019-04-25T13:08:59.500Z,97176.05
2019-04-25T13:12:06.008Z,97173.50
2019-04-25T13:15:11.105Z,97167.33
2019-04-25T13:18:15.757Z,97175.17
2019-04-25T13:21:20.209Z,97176.46
2019-04-25T13:24:24.644Z,97180.05
2019-04-25T13:27:30.724Z,97173.37
2019-04-25T13:30:59.904Z,97169.62
2019-04-25T13:34:08.526Z,97165.81
2019-04-25T13:37:14.126Z,97153.56
2019-04-25T13:40:18.682Z,97157.16
2019-04-25T13:43:23.423Z,97150.59
2019-04-25T13:46:28.260Z,97155.90
2019-04-25T13:49:32.778Z,97158.65
2019-04-25T13:52:37.292Z,97158.70
2019-04-25T13:55:41.798Z,97153.25
2019-04-25T13:58:46.568Z,97139.19
2019-04-25T14:01:51.908Z,97140.66
2019-04-25T14:04:56.419Z,97144.27
2019-04-25T14:08:00.934Z,97149.65
2019-04-25T14:11:05.700Z,97138.68
2019-04-25T14:14:10.529Z,97137.61
2019-04-25T14:17:33.822Z,97129.31
2019-04-25T14:20:45.911Z,97121.28
2019-04-25T14:23:50.341Z,97120.02
2019-04-25T14:26:55.053Z,97117.08
2019-04-25T14:29:59.581Z,97118.14
2019-04-25T14:33:04.479Z,97112.53
2019-04-25T14:36:08.992Z,97111.87
2019-04-25T14:39:14.278Z,97099.43
2019-04-25T14:42:18.729Z,97095.80
2019-04-25T14:45:24.453Z,97100.00
2019-04-25T14:48:29.384Z,97094.23
2019-04-25T14:51:33.969Z,97092.39
2019-04-25T14:54:42.796Z,97094.56
2019-04-25T14:57:47.584Z,97090.92
2019-04-25T15:00:53.130Z,97086.61
2019-04-25T15:03:57.865Z,97092.50
2019-04-25T15:07:02.317Z,97089.91
2019-04-25T15:10:07.417Z,97084.63
2019-04-25T15:13:12.300Z,97083.48
2019-04-25T15:16:16.742Z,97083.69
2019-04-25T15:19:21.179Z,97081.14
2019-04-25T15:22:25.719Z,97085.42
2019-04-25T15:25:30.141Z,97078.97
2019-04-25T15:28:34.580Z,97082.47
2019-04-25T15:31:39.070Z,97077.57
2019-04-25T15:34:47.838Z,97072.48
2019-04-25T15:38:10.092Z,97069.30
2019-04-25T15:41:22.694Z,97080.86
2019-04-25T15:44:28.768Z,97081.67
2019-04-25T15:47:34.058Z,97078.98
2019-04-25T15:50:38.674Z,97068.95
2019-04-25T15:53:43.180Z,97079.10
2019-04-25T15:56:47.623Z,97077.44
2019-04-25T15:59:52.060Z,97074.78
2019-04-25T16:02:56.504Z,97070.14
2019-04-25T16:06:00.948Z,97062.13
2019-04-25T16:09:07.493Z,97060.79
2019-04-25T16:12:12.405Z,97069.23
2019-04-25T16:15:16.847Z,97067.27
2019-04-25T16:18:21.624Z,97061.38
2019-04-25T16:21:26.754Z,97063.89
2019-04-25T16:24:32.310Z,97074.50
2019-04-25T16:27:36.696Z,97081.36
2019-04-25T16:30:41.461Z,97073.93
2019-04-25T16:33:45.897Z,97079.02
2019-04-25T16:36:50.334Z,97074.89
2019-04-25T16:39:54.779Z,97072.71
2019-04-25T16:43:00.864Z,97070.17
2019-04-25T16:46:05.443Z,97074.52
2019-04-25T16:49:09.879Z,97072.19
2019-04-25T16:52:17.612Z,97070.24
2019-04-25T16:55:22.173Z,97075.73
2019-04-25T16:58:26.611Z,97075.17
2019-04-25T17:01:31.681Z,97078.09
2019-04-25T17:04:37.498Z,97077.28
2019-04-25T17:07:42.318Z,97080.24
2019-04-25T17:10:47.191Z,97079.83
2019-04-25T17:14:02.157Z,97079.25
2019-04-25T17:17:11.459Z,97078.03
2019-04-25T17:20:26.549Z,97082.55
2019-04-25T17:23:32.278Z,97092.53
2019-04-25T17:26:36.862Z,97091.73
2019-04-25T17:29:41.300Z,97093.50
2019-04-25T17:32:56.371Z,97097.58
2019-04-25T17:36:02.484Z,97099.91
2019-04-25T17:39:25.774Z,97100.62
2019-04-25T17:42:30.478Z,97103.94
2019-04-25T17:45:35.297Z,97128.59
2019-04-25T17:48:40.481Z,97150.19
2019-04-25T17:51:45.041Z,97155.62
2019-04-25T17:54:49.485Z,97161.97
2019-04-25T17:57:53.928Z,97177.95
2019-04-25T18:00:58.831Z,97182.69
2019-04-25T18:04:03.646Z,97184.13
2019-04-25T18:07:08.453Z,97191.98
2019-04-25T18:10:13.166Z,97204.25
2019-04-25T18:13:18.000Z,97222.98
2019-04-25T18:16:26.737Z,97232.47
2019-04-25T18:19:36.367Z,97225.34
2019-04-25T18:22:45.093Z,97233.50
2019-04-25T18:26:00.243Z,97239.41
2019-04-25T18:29:06.329Z,97260.56
2019-04-25T18:32:10.764Z,97264.73
2019-04-25T18:35:16.852Z,97283.44
2019-04-25T18:38:28.871Z,97298.66
2019-04-25T18:41:35.414Z,97301.66
2019-04-25T18:44:40.774Z,97312.52
2019-04-25T18:47:45.452Z,97319.34
2019-04-25T18:50:49.899Z,97323.70
2019-04-25T18:53:58.796Z,97326.78
2019-04-25T18:57:13.857Z,97334.80
2019-04-25T19:00:20.250Z,97345.55
2019-04-25T19:03:27.455Z,97352.38
2019-04-25T19:06:32.029Z,97372.88
2019-04-25T19:09:36.471Z,97379.31
2019-04-25T19:12:41.206Z,97393.80
2019-04-25T19:15:45.868Z,97399.35
2019-04-25T19:18:50.302Z,97399.52
2019-04-25T19:21:54.738Z,97404.14
2019-04-25T19:24:59.423Z,97411.95
2019-04-25T19:28:03.858Z,97414.59
2019-04-25T19:31:08.365Z,97421.30
2019-04-25T19:34:12.802Z,97421.86
2019-04-25T19:37:17.244Z,97436.19
2019-04-25T19:40:24.141Z,97445.48
2019-04-25T19:43:30.214Z,97441.78
2019-04-25T19:46:45.025Z,97467.11
2019-04-25T19:49:49.837Z,97467.99
2019-04-25T19:52:54.367Z,97477.58
2019-04-25T19:55:58.839Z,97479.77
2019-04-25T19:59:03.547Z,97480.02
2019-04-25T20:02:09.633Z,97494.08
2019-04-25T20:05:16.389Z,97514.27
2019-04-25T20:08:25.125Z,97505.76
2019-04-25T20:11:44.196Z,97499.91
2019-04-25T20:14:50.039Z,97508.56
2019-04-25T20:17:54.489Z,97519.04
2019-04-25T20:20:59.218Z,97531.10
2019-04-25T20:24:03.658Z,97528.71
2019-04-25T20:27:08.093Z,97535.75
2019-04-25T20:30:13.671Z,97547.60
2019-04-25T20:33:18.124Z,97543.40
2019-04-25T20:36:22.564Z,97553.77
2019-04-25T20:39:27.819Z,97548.67
2019-04-25T20:42:32.389Z,97554.06
2019-04-25T20:45:36.845Z,97549.48
2019-04-25T20:48:41.284Z,97560.67
2019-04-25T20:51:47.064Z,97580.20
2019-04-25T20:54:51.550Z,97586.23
2019-04-25T20:57:56.269Z,97594.69
2019-04-25T21:01:02.343Z,97600.32
2019-04-25T21:04:13.337Z,97597.72
2019-04-25T21:07:14.966Z,97600.67
2019-04-25T21:10:19.428Z,97581.72
2019-04-25T21:13:28.725Z,97595.39
2019-04-25T21:16:37.527Z,97598.60
2019-04-25T21:19:48.830Z,97610.69
2019-04-25T21:22:53.750Z,97625.00
2019-04-25T21:25:59.056Z,97624.72
2019-04-25T21:29:03.569Z,97629.56
2019-04-25T21:32:08.272Z,97640.92
2019-04-25T21:35:12.703Z,97634.32
2019-04-25T21:38:17.148Z,97642.64
2019-04-25T21:41:39.314Z,97636.66
2019-04-25T21:44:44.027Z,97644.97
2019-04-25T21:47:48.475Z,97651.11
2019-04-25T21:50:53.656Z,97637.81
2019-04-25T21:53:59.282Z,97624.30
2019-04-25T21:57:03.992Z,97635.00
2019-04-25T22:00:12.554Z,97642.69
2019-04-25T22:03:19.255Z,97629.92
2019-04-25T22:06:24.309Z,97633.72
2019-04-25T22:09:28.710Z,97634.49
2019-04-25T22:12:33.435Z,97639.17
2019-04-25T22:15:38.157Z,97660.27
2019-04-25T22:18:42.874Z,97663.56
2019-04-25T22:21:47.598Z,97665.79
2019-04-25T22:24:52.022Z,97662.98
2019-04-25T22:27:56.659Z,97656.88
2019-04-25T22:31:03.683Z,97650.73
2019-04-25T22:34:12.458Z,97656.62
2019-04-25T22:37:17.327Z,97657.67
2019-04-25T22:40:22.411Z,97670.05
2019-04-25T22:43:28.227Z,97666.59
2019-04-25T22:46:32.816Z,97664.86
2019-04-25T22:49:37.671Z,97671.44
2019-04-25T22:52:42.393Z,97665.78
2019-04-25T22:55:46.826Z,97650.95
2019-04-25T22:58:51.275Z,97653.47
2019-04-25T23:02:02.401Z,97653.37
2019-04-25T23:05:27.570Z,97663.52
2019-04-25T23:08:32.273Z,97655.34
2019-04-25T23:11:36.775Z,97662.75
2019-04-25T23:14:41.689Z,97654.09
2019-04-25T23:17:46.457Z,97658.33
2019-04-25T23:20:51.186Z,97659.78
2019-04-25T23:23:55.892Z,97661.44
2019-04-25T23:27:16.927Z,97649.70
2019-04-25T23:30:22.998Z,97646.47
2019-04-25T23:33:27.442Z,97652.42
2019-04-25T23:36:31.954Z,97639.33
2019-04-25T23:39:36.394Z,97635.44
2019-04-25T23:42:40.904Z,97625.11
2019-04-25T23:45:45.618Z,97636.59
2019-04-25T23:48:50.669Z,97649.63
2019-04-25T23:51:55.104Z,97630.97
2019-04-25T23:54:59.820Z,97638.78
2019-04-25T23:58:04.548Z,97640.45
